sensor_id;sensor_type;location;lat;lon;timestamp;pressure;altitude;pressure_sealevel;temperature;humidity
21300;BME280;10809;49.476;11.016;2023-05-29T00:00:31;98350.00;;;19.54;31.45
21300;BME280;10809;49.476;11.016;2023-05-29T00:03:03;98349.44;;;19.50;31.57
21300;BME280;10809;49.476;11.016;2023-05-29T00:05:35;98347.13;;;19.46;31.70
21300;BME280;10809;49.476;11.016;2023-05-29T00:08:06;98347.56;;;19.41;31.81
21300;BME280;10809;49.476;11.016;2023-05-29T00:10:36;98350.53;;;19.38;31.59
21300;BME280;10809;49.476;11.016;2023-05-29T00:13:07;98352.63;;;19.35;31.60
21300;BME280;10809;49.476;11.016;2023-05-29T00:15:37;98351.22;;;19.31;31.77
21300;BME280;10809;49.476;11.016;2023-05-29T00:18:08;98348.94;;;19.26;31.69
21300;BME280;10809;49.476;11.016;2023-05-29T00:20:39;98352.91;;;19.22;31.74
21300;BME280;10809;49.476;11.016;2023-05-29T00:23:09;98356.00;;;19.18;31.89
21300;BME280;10809;49.476;11.016;2023-05-29T00:25:40;98349.34;;;19.12;31.86
21300;BME280;10809;49.476;11.016;2023-05-29T00:28:10;98347.06;;;19.08;31.91
21300;BME280;10809;49.476;11.016;2023-05-29T00:30:42;98351.00;;;19.04;32.18
21300;BME280;10809;49.476;11.016;2023-05-29T00:33:16;98346.06;;;18.99;32.01
21300;BME280;10809;49.476;11.016;2023-05-29T00:35:48;98350.84;;;18.96;32.17
21300;BME280;10809;49.476;11.016;2023-05-29T00:38:18;98353.94;;;18.91;32.13
21300;BME280;10809;49.476;11.016;2023-05-29T00:40:49;98347.00;;;18.89;32.18
21300;BME280;10809;49.476;11.016;2023-05-29T00:43:19;98349.25;;;18.84;32.44
21300;BME280;10809;49.476;11.016;2023-05-29T00:45:52;98346.97;;;18.79;32.27
21300;BME280;10809;49.476;11.016;2023-05-29T00:48:23;98349.06;;;18.76;32.35
21300;BME280;10809;49.476;11.016;2023-05-29T00:50:54;98352.97;;;18.72;32.52
21300;BME280;10809;49.476;11.016;2023-05-29T00:53:28;98360.44;;;18.68;32.63
21300;BME280;10809;49.476;11.016;2023-05-29T00:55:59;98355.34;;;18.65;32.56
21300;BME280;10809;49.476;11.016;2023-05-29T00:58:30;98353.06;;;18.61;32.67
21300;BME280;10809;49.476;11.016;2023-05-29T01:01:02;98349.91;;;18.56;32.59
21300;BME280;10809;49.476;11.016;2023-05-29T01:03:33;98362.91;;;18.51;33.06
21300;BME280;10809;49.476;11.016;2023-05-29T01:06:05;98361.44;;;18.47;32.96
21300;BME280;10809;49.476;11.016;2023-05-29T01:08:36;98355.66;;;18.42;32.93
21300;BME280;10809;49.476;11.016;2023-05-29T01:11:36;98361.41;;;18.37;32.70
21300;BME280;10809;49.476;11.016;2023-05-29T01:14:45;98362.66;;;18.33;32.90
21300;BME280;10809;49.476;11.016;2023-05-29T01:20:39;98357.94;;;18.26;32.94
21300;BME280;10809;49.476;11.016;2023-05-29T01:28:46;98351.94;;;18.13;33.23
21300;BME280;10809;49.476;11.016;2023-05-29T01:31:20;98358.44;;;18.10;33.53
21300;BME280;10809;49.476;11.016;2023-05-29T01:33:55;98352.59;;;18.05;33.37
21300;BME280;10809;49.476;11.016;2023-05-29T01:36:26;98358.22;;;18.02;33.53
21300;BME280;10809;49.476;11.016;2023-05-29T01:39:00;98353.13;;;17.99;33.49
21300;BME280;10809;49.476;11.016;2023-05-29T01:41:31;98348.84;;;17.96;33.45
21300;BME280;10809;49.476;11.016;2023-05-29T01:44:06;98353.75;;;17.91;33.73
21300;BME280;10809;49.476;11.016;2023-05-29T01:46:43;98343.28;;;17.88;33.66
21300;BME280;10809;49.476;11.016;2023-05-29T01:49:16;98351.72;;;17.84;33.70
21300;BME280;10809;49.476;11.016;2023-05-29T01:51:47;98349.28;;;17.81;33.81
21300;BME280;10809;49.476;11.016;2023-05-29T01:54:22;98347.00;;;17.76;34.04
21300;BME280;10809;49.476;11.016;2023-05-29T01:56:53;98347.38;;;17.72;34.13
21300;BME280;10809;49.476;11.016;2023-05-29T01:59:24;98342.41;;;17.67;34.02
21300;BME280;10809;49.476;11.016;2023-05-29T02:01:55;98345.34;;;17.64;34.23
21300;BME280;10809;49.476;11.016;2023-05-29T02:04:25;98341.06;;;17.62;34.27
21300;BME280;10809;49.476;11.016;2023-05-29T02:06:55;98333.44;;;17.57;34.48
21300;BME280;10809;49.476;11.016;2023-05-29T02:09:26;98340.88;;;17.54;34.43
21300;BME280;10809;49.476;11.016;2023-05-29T02:11:56;98338.44;;;17.51;34.56
21300;BME280;10809;49.476;11.016;2023-05-29T02:14:27;98338.69;;;17.48;34.58
21300;BME280;10809;49.476;11.016;2023-05-29T02:16:58;98332.75;;;17.44;34.56
21300;BME280;10809;49.476;11.016;2023-05-29T02:19:29;98334.72;;;17.42;34.52
21300;BME280;10809;49.476;11.016;2023-05-29T02:21:59;98331.41;;;17.39;34.60
21300;BME280;10809;49.476;11.016;2023-05-29T02:24:30;98329.00;;;17.36;34.59
21300;BME280;10809;49.476;11.016;2023-05-29T02:27:00;98332.06;;;17.31;34.75
21300;BME280;10809;49.476;11.016;2023-05-29T02:33:01;98322.97;;;17.23;34.89
21300;BME280;10809;49.476;11.016;2023-05-29T02:35:31;98322.38;;;17.19;34.63
21300;BME280;10809;49.476;11.016;2023-05-29T02:38:01;98329.81;;;17.16;35.06
21300;BME280;10809;49.476;11.016;2023-05-29T02:40:32;98322.13;;;17.11;34.93
21300;BME280;10809;49.476;11.016;2023-05-29T02:43:02;98324.19;;;17.08;35.09
21300;BME280;10809;49.476;11.016;2023-05-29T02:45:38;98329.06;;;17.03;35.07
21300;BME280;10809;49.476;11.016;2023-05-29T02:48:14;98326.75;;;16.98;35.08
21300;BME280;10809;49.476;11.016;2023-05-29T02:50:45;98320.69;;;16.96;35.19
21300;BME280;10809;49.476;11.016;2023-05-29T02:53:24;98320.09;;;16.93;35.03
21300;BME280;10809;49.476;11.016;2023-05-29T02:55:55;98323.84;;;16.90;35.49
21300;BME280;10809;49.476;11.016;2023-05-29T02:58:35;98330.31;;;16.88;35.25
21300;BME280;10809;49.476;11.016;2023-05-29T03:01:06;98326.06;;;16.85;35.32
21300;BME280;10809;49.476;11.016;2023-05-29T03:03:45;98325.56;;;16.80;35.12
21300;BME280;10809;49.476;11.016;2023-05-29T03:06:16;98332.88;;;16.78;35.53
21300;BME280;10809;49.476;11.016;2023-05-29T03:08:49;98328.75;;;16.74;35.52
21300;BME280;10809;49.476;11.016;2023-05-29T03:11:19;98336.16;;;16.71;35.80
21300;BME280;10809;49.476;11.016;2023-05-29T03:13:53;98330.22;;;16.67;35.53
21300;BME280;10809;49.476;11.016;2023-05-29T03:16:27;98328.75;;;16.63;35.79
21300;BME280;10809;49.476;11.016;2023-05-29T03:19:02;98327.31;;;16.59;35.72
21300;BME280;10809;49.476;11.016;2023-05-29T03:21:33;98331.06;;;16.57;35.84
21300;BME280;10809;49.476;11.016;2023-05-29T03:24:06;98326.94;;;16.53;36.04
21300;BME280;10809;49.476;11.016;2023-05-29T03:26:39;98333.50;;;16.49;35.86
21300;BME280;10809;49.476;11.016;2023-05-29T03:29:09;98327.41;;;16.47;36.07
21300;BME280;10809;49.476;11.016;2023-05-29T03:31:42;98327.78;;;16.42;36.25
21300;BME280;10809;49.476;11.016;2023-05-29T03:34:20;98328.00;;;16.39;35.96
21300;BME280;10809;49.476;11.016;2023-05-29T03:36:58;98331.78;;;16.36;36.22
21300;BME280;10809;49.476;11.016;2023-05-29T03:39:31;98338.22;;;16.34;36.21
21300;BME280;10809;49.476;11.016;2023-05-29T03:42:02;98347.44;;;16.30;36.18
21300;BME280;10809;49.476;11.016;2023-05-29T03:44:36;98343.28;;;16.26;35.98
21300;BME280;10809;49.476;11.016;2023-05-29T03:47:09;98350.56;;;16.24;36.33
21300;BME280;10809;49.476;11.016;2023-05-29T03:49:40;98342.66;;;16.22;36.31
21300;BME280;10809;49.476;11.016;2023-05-29T03:52:29;98357.94;;;16.20;36.39
21300;BME280;10809;49.476;11.016;2023-05-29T03:55:02;98355.53;;;16.17;36.72
21300;BME280;10809;49.476;11.016;2023-05-29T03:57:32;98355.63;;;16.16;36.67
21300;BME280;10809;49.476;11.016;2023-05-29T04:00:10;98363.78;;;16.14;36.53
21300;BME280;10809;49.476;11.016;2023-05-29T04:02:43;98353.31;;;16.11;36.74
21300;BME280;10809;49.476;11.016;2023-05-29T04:05:14;98365.09;;;16.09;36.79
21300;BME280;10809;49.476;11.016;2023-05-29T04:07:45;98367.78;;;16.09;36.77
21300;BME280;10809;49.476;11.016;2023-05-29T04:10:16;98368.00;;;16.06;37.13
21300;BME280;10809;49.476;11.016;2023-05-29T04:12:46;98371.78;;;16.03;36.94
21300;BME280;10809;49.476;11.016;2023-05-29T04:15:19;98383.41;;;16.02;37.10
21300;BME280;10809;49.476;11.016;2023-05-29T04:17:52;98379.06;;;16.01;37.03
21300;BME280;10809;49.476;11.016;2023-05-29T04:20:28;98388.03;;;16.00;37.15
21300;BME280;10809;49.476;11.016;2023-05-29T04:22:58;98387.06;;;16.01;37.29
21300;BME280;10809;49.476;11.016;2023-05-29T04:25:29;98383.53;;;16.01;37.34
21300;BME280;10809;49.476;11.016;2023-05-29T04:27:59;98390.59;;;16.02;37.24
21300;BME280;10809;49.476;11.016;2023-05-29T04:30:36;98394.97;;;16.03;37.61
21300;BME280;10809;49.476;11.016;2023-05-29T04:33:07;98394.84;;;16.04;37.65
21300;BME280;10809;49.476;11.016;2023-05-29T04:35:41;98402.75;;;16.06;37.42
21300;BME280;10809;49.476;11.016;2023-05-29T04:38:15;98399.94;;;16.07;37.55
21300;BME280;10809;49.476;11.016;2023-05-29T04:40:52;98406.03;;;16.09;37.63
21300;BME280;10809;49.476;11.016;2023-05-29T04:43:27;98412.09;;;16.11;37.73
21300;BME280;10809;49.476;11.016;2023-05-29T04:46:06;98414.53;;;16.14;37.54
21300;BME280;10809;49.476;11.016;2023-05-29T04:48:42;98423.28;;;16.16;37.36
21300;BME280;10809;49.476;11.016;2023-05-29T04:51:20;98424.88;;;16.19;37.52
21300;BME280;10809;49.476;11.016;2023-05-29T04:53:52;98422.94;;;16.21;37.49
21300;BME280;10809;49.476;11.016;2023-05-29T04:56:25;98427.31;;;16.22;37.67
21300;BME280;10809;49.476;11.016;2023-05-29T04:58:57;98427.19;;;16.23;37.46
21300;BME280;10809;49.476;11.016;2023-05-29T05:01:28;98432.53;;;16.23;37.65
21300;BME280;10809;49.476;11.016;2023-05-29T05:03:59;98435.94;;;16.25;37.63
21300;BME280;10809;49.476;11.016;2023-05-29T05:06:30;98431.47;;;16.26;37.68
21300;BME280;10809;49.476;11.016;2023-05-29T05:09:02;98433.06;;;16.28;37.77
21300;BME280;10809;49.476;11.016;2023-05-29T05:11:34;98432.97;;;16.30;37.83
21300;BME280;10809;49.476;11.016;2023-05-29T05:14:05;98435.63;;;16.30;37.80
21300;BME280;10809;49.476;11.016;2023-05-29T05:16:42;98445.34;;;16.31;37.81
21300;BME280;10809;49.476;11.016;2023-05-29T05:19:14;98443.41;;;16.33;37.84
21300;BME280;10809;49.476;11.016;2023-05-29T05:21:46;98453.88;;;16.36;37.91
21300;BME280;10809;49.476;11.016;2023-05-29T05:24:17;98447.41;;;16.38;37.93
21300;BME280;10809;49.476;11.016;2023-05-29T05:26:48;98451.69;;;16.41;38.09
21300;BME280;10809;49.476;11.016;2023-05-29T05:29:18;98455.94;;;16.43;38.02
21300;BME280;10809;49.476;11.016;2023-05-29T05:31:53;98458.50;;;16.45;37.92
21300;BME280;10809;49.476;11.016;2023-05-29T05:34:23;98463.63;;;16.48;38.14
21300;BME280;10809;49.476;11.016;2023-05-29T05:36:59;98460.81;;;16.50;38.06
21300;BME280;10809;49.476;11.016;2023-05-29T05:39:30;98463.25;;;16.53;38.02
21300;BME280;10809;49.476;11.016;2023-05-29T05:42:01;98473.72;;;16.56;37.89
21300;BME280;10809;49.476;11.016;2023-05-29T05:45:00;98474.34;;;16.59;38.17
21300;BME280;10809;49.476;11.016;2023-05-29T05:47:32;98477.63;;;16.63;38.17
21300;BME280;10809;49.476;11.016;2023-05-29T05:50:06;98476.53;;;16.65;38.28
21300;BME280;10809;49.476;11.016;2023-05-29T05:52:43;98474.59;;;16.67;38.26
21300;BME280;10809;49.476;11.016;2023-05-29T05:55:14;98475.09;;;16.72;38.40
21300;BME280;10809;49.476;11.016;2023-05-29T05:57:44;98477.50;;;16.75;38.04
21300;BME280;10809;49.476;11.016;2023-05-29T06:00:52;98480.81;;;16.79;38.06
21300;BME280;10809;49.476;11.016;2023-05-29T06:03:23;98478.75;;;16.82;38.03
21300;BME280;10809;49.476;11.016;2023-05-29T06:06:11;98480.22;;;16.86;38.11
21300;BME280;10809;49.476;11.016;2023-05-29T06:08:44;98481.66;;;16.90;38.06
21300;BME280;10809;49.476;11.016;2023-05-29T06:11:22;98484.59;;;16.98;38.54
21300;BME280;10809;49.476;11.016;2023-05-29T06:13:57;98475.16;;;17.16;38.95
21300;BME280;10809;49.476;11.016;2023-05-29T06:16:32;98478.03;;;17.46;38.92
21300;BME280;10809;49.476;11.016;2023-05-29T06:19:02;98477.75;;;17.82;39.41
21300;BME280;10809;49.476;11.016;2023-05-29T06:21:35;98478.84;;;18.23;39.23
21300;BME280;10809;49.476;11.016;2023-05-29T06:24:35;98477.38;;;18.71;38.72
21300;BME280;10809;49.476;11.016;2023-05-29T06:27:05;98479.91;;;19.13;38.55
21300;BME280;10809;49.476;11.016;2023-05-29T06:29:36;98479.94;;;19.53;38.03
21300;BME280;10809;49.476;11.016;2023-05-29T06:32:13;98477.59;;;19.88;38.04
21300;BME280;10809;49.476;11.016;2023-05-29T06:34:45;98481.91;;;20.19;37.76
21300;BME280;10809;49.476;11.016;2023-05-29T06:37:26;98482.50;;;20.51;37.25
21300;BME280;10809;49.476;11.016;2023-05-29T06:39:56;98485.72;;;20.74;36.79
21300;BME280;10809;49.476;11.016;2023-05-29T06:42:28;98477.44;;;20.94;36.60
21300;BME280;10809;49.476;11.016;2023-05-29T06:45:07;98485.50;;;21.13;36.61
21300;BME280;10809;49.476;11.016;2023-05-29T06:47:44;98480.03;;;21.32;36.25
21300;BME280;10809;49.476;11.016;2023-05-29T06:50:15;98487.34;;;21.49;36.16
21300;BME280;10809;49.476;11.016;2023-05-29T06:52:46;98482.28;;;21.64;36.14
21300;BME280;10809;49.476;11.016;2023-05-29T06:55:22;98481.97;;;21.77;35.89
21300;BME280;10809;49.476;11.016;2023-05-29T06:57:52;98469.47;;;21.85;35.60
21300;BME280;10809;49.476;11.016;2023-05-29T07:00:27;98476.94;;;21.91;35.76
21300;BME280;10809;49.476;11.016;2023-05-29T07:03:19;98471.91;;;21.96;35.76
21300;BME280;10809;49.476;11.016;2023-05-29T07:05:50;98481.41;;;22.00;35.33
21300;BME280;10809;49.476;11.016;2023-05-29T07:08:27;98473.84;;;22.04;35.73
21300;BME280;10809;49.476;11.016;2023-05-29T07:10:57;98471.69;;;22.07;35.41
21300;BME280;10809;49.476;11.016;2023-05-29T07:13:28;98475.94;;;22.10;35.58
21300;BME280;10809;49.476;11.016;2023-05-29T07:15:59;98477.50;;;22.12;35.23
21300;BME280;10809;49.476;11.016;2023-05-29T07:18:36;98474.66;;;22.14;35.03
21300;BME280;10809;49.476;11.016;2023-05-29T07:21:09;98475.31;;;22.16;35.18
21300;BME280;10809;49.476;11.016;2023-05-29T07:23:40;98476.03;;;22.18;35.08
21300;BME280;10809;49.476;11.016;2023-05-29T07:26:11;98474.03;;;22.20;34.92
21300;BME280;10809;49.476;11.016;2023-05-29T07:28:49;98471.03;;;22.23;35.17
21300;BME280;10809;49.476;11.016;2023-05-29T07:31:20;98472.72;;;22.24;34.96
21300;BME280;10809;49.476;11.016;2023-05-29T07:33:54;98473.97;;;22.29;35.04
21300;BME280;10809;49.476;11.016;2023-05-29T07:36:29;98474.34;;;22.34;34.93
21300;BME280;10809;49.476;11.016;2023-05-29T07:39:07;98481.16;;;22.38;34.93
21300;BME280;10809;49.476;11.016;2023-05-29T07:41:38;98474.13;;;22.45;35.06
21300;BME280;10809;49.476;11.016;2023-05-29T07:44:09;98477.88;;;22.52;34.99
21300;BME280;10809;49.476;11.016;2023-05-29T07:46:45;98473.59;;;22.59;34.58
21300;BME280;10809;49.476;11.016;2023-05-29T07:49:54;98477.03;;;22.69;34.60
21300;BME280;10809;49.476;11.016;2023-05-29T07:52:27;98477.94;;;22.78;34.64
21300;BME280;10809;49.476;11.016;2023-05-29T07:54:59;98487.09;;;22.85;34.05
21300;BME280;10809;49.476;11.016;2023-05-29T07:57:32;98476.69;;;22.90;33.95
21300;BME280;10809;49.476;11.016;2023-05-29T08:00:04;98470.66;;;22.96;33.82
21300;BME280;10809;49.476;11.016;2023-05-29T08:02:39;98479.13;;;23.01;33.60
21300;BME280;10809;49.476;11.016;2023-05-29T08:05:29;98478.34;;;23.08;33.58
21300;BME280;10809;49.476;11.016;2023-05-29T08:08:02;98469.75;;;23.13;33.26
21300;BME280;10809;49.476;11.016;2023-05-29T08:10:32;98474.00;;;23.16;33.39
21300;BME280;10809;49.476;11.016;2023-05-29T08:13:03;98468.44;;;23.17;33.16
21300;BME280;10809;49.476;11.016;2023-05-29T08:15:35;98459.31;;;23.18;32.31
21300;BME280;10809;49.476;11.016;2023-05-29T08:18:05;98470.44;;;23.15;32.52
21300;BME280;10809;49.476;11.016;2023-05-29T08:20:36;98460.66;;;23.14;32.22
21300;BME280;10809;49.476;11.016;2023-05-29T08:23:07;98457.09;;;23.13;32.09
21300;BME280;10809;49.476;11.016;2023-05-29T08:25:44;98463.75;;;23.19;32.59
21300;BME280;10809;49.476;11.016;2023-05-29T08:28:24;98467.16;;;23.29;32.78
21300;BME280;10809;49.476;11.016;2023-05-29T08:30:56;98460.13;;;23.44;32.32
21300;BME280;10809;49.476;11.016;2023-05-29T08:33:29;98452.56;;;23.56;31.44
21300;BME280;10809;49.476;11.016;2023-05-29T08:36:00;98460.75;;;23.64;31.86
21300;BME280;10809;49.476;11.016;2023-05-29T08:38:31;98460.47;;;23.75;31.78
21300;BME280;10809;49.476;11.016;2023-05-29T08:41:02;98458.97;;;23.88;32.06
21300;BME280;10809;49.476;11.016;2023-05-29T08:43:33;98462.41;;;24.06;31.78
21300;BME280;10809;49.476;11.016;2023-05-29T08:46:07;98457.19;;;24.21;31.70
21300;BME280;10809;49.476;11.016;2023-05-29T08:48:39;98456.22;;;24.38;31.48
21300;BME280;10809;49.476;11.016;2023-05-29T08:51:10;98453.00;;;24.50;31.12
21300;BME280;10809;49.476;11.016;2023-05-29T08:53:40;98449.63;;;24.56;30.53
21300;BME280;10809;49.476;11.016;2023-05-29T08:56:12;98445.91;;;24.57;30.72
21300;BME280;10809;49.476;11.016;2023-05-29T08:58:43;98449.63;;;24.56;30.59
21300;BME280;10809;49.476;11.016;2023-05-29T09:01:21;98443.34;;;24.56;30.18
21300;BME280;10809;49.476;11.016;2023-05-29T09:03:52;98445.56;;;24.52;30.02
21300;BME280;10809;49.476;11.016;2023-05-29T09:06:25;98448.78;;;24.48;29.89
21300;BME280;10809;49.476;11.016;2023-05-29T09:08:56;98441.50;;;24.40;29.64
21300;BME280;10809;49.476;11.016;2023-05-29T09:11:27;98441.34;;;24.34;29.96
21300;BME280;10809;49.476;11.016;2023-05-29T09:13:59;98444.22;;;24.32;29.99
21300;BME280;10809;49.476;11.016;2023-05-29T09:16:29;98448.44;;;24.35;29.94
21300;BME280;10809;49.476;11.016;2023-05-29T09:19:06;98438.81;;;24.40;29.82
21300;BME280;10809;49.476;11.016;2023-05-29T09:22:03;98443.88;;;24.43;29.98
21300;BME280;10809;49.476;11.016;2023-05-29T09:27:17;98438.97;;;24.47;29.79
21300;BME280;10809;49.476;11.016;2023-05-29T09:29:48;98445.22;;;24.47;29.57
21300;BME280;10809;49.476;11.016;2023-05-29T09:32:18;98444.19;;;24.48;29.66
21300;BME280;10809;49.476;11.016;2023-05-29T09:34:52;98444.19;;;24.48;29.56
21300;BME280;10809;49.476;11.016;2023-05-29T09:37:23;98442.34;;;24.49;29.37
21300;BME280;10809;49.476;11.016;2023-05-29T09:39:54;98446.09;;;24.48;29.17
21300;BME280;10809;49.476;11.016;2023-05-29T09:42:24;98448.78;;;24.48;29.18
21300;BME280;10809;49.476;11.016;2023-05-29T09:44:55;98446.91;;;24.48;29.27
21300;BME280;10809;49.476;11.016;2023-05-29T09:47:32;98449.09;;;24.53;29.12
21300;BME280;10809;49.476;11.016;2023-05-29T09:50:03;98449.63;;;24.56;28.90
21300;BME280;10809;49.476;11.016;2023-05-29T09:52:34;98448.44;;;24.59;28.74
21300;BME280;10809;49.476;11.016;2023-05-29T09:55:07;98441.84;;;24.61;28.62
21300;BME280;10809;49.476;11.016;2023-05-29T09:57:38;98456.56;;;24.67;28.92
21300;BME280;10809;49.476;11.016;2023-05-29T10:00:12;98445.22;;;24.71;28.87
21300;BME280;10809;49.476;11.016;2023-05-29T10:02:43;98445.22;;;24.79;28.53
21300;BME280;10809;49.476;11.016;2023-05-29T10:05:19;98441.81;;;24.86;28.64
21300;BME280;10809;49.476;11.016;2023-05-29T10:07:53;98448.59;;;24.90;28.45
21300;BME280;10809;49.476;11.016;2023-05-29T10:10:25;98434.06;;;24.91;27.83
21300;BME280;10809;49.476;11.016;2023-05-29T10:12:57;98445.91;;;24.90;28.19
21300;BME280;10809;49.476;11.016;2023-05-29T10:15:28;98443.66;;;24.85;28.03
21300;BME280;10809;49.476;11.016;2023-05-29T10:18:03;98437.78;;;24.82;28.13
21300;BME280;10809;49.476;11.016;2023-05-29T10:20:34;98431.50;;;24.81;27.75
21300;BME280;10809;49.476;11.016;2023-05-29T10:23:06;98433.69;;;24.77;27.55
21300;BME280;10809;49.476;11.016;2023-05-29T10:25:43;98425.22;;;24.72;27.85
21300;BME280;10809;49.476;11.016;2023-05-29T10:28:22;98429.13;;;24.70;27.86
21300;BME280;10809;49.476;11.016;2023-05-29T10:31:02;98424.06;;;24.67;27.51
21300;BME280;10809;49.476;11.016;2023-05-29T10:36:29;98423.88;;;24.60;27.79
21300;BME280;10809;49.476;11.016;2023-05-29T10:39:02;98422.72;;;24.63;27.66
21300;BME280;10809;49.476;11.016;2023-05-29T10:41:33;98427.63;;;24.67;27.84
21300;BME280;10809;49.476;11.016;2023-05-29T10:47:03;98424.88;;;24.83;27.66
21300;BME280;10809;49.476;11.016;2023-05-29T10:49:34;98417.63;;;24.92;27.32
21300;BME280;10809;49.476;11.016;2023-05-29T10:52:10;98410.66;;;24.98;27.31
21300;BME280;10809;49.476;11.016;2023-05-29T10:54:57;98403.69;;;25.03;27.63
21300;BME280;10809;49.476;11.016;2023-05-29T10:57:31;98414.88;;;25.08;26.56
21300;BME280;10809;49.476;11.016;2023-05-29T11:00:15;98405.72;;;25.09;26.98
21300;BME280;10809;49.476;11.016;2023-05-29T11:02:51;98399.28;;;25.10;26.70
21300;BME280;10809;49.476;11.016;2023-05-29T11:05:28;98391.63;;;25.14;26.94
21300;BME280;10809;49.476;11.016;2023-05-29T11:08:00;98403.34;;;25.14;26.46
21300;BME280;10809;49.476;11.016;2023-05-29T11:18:57;98400.06;;;25.27;26.64
21300;BME280;10809;49.476;11.016;2023-05-29T11:24:35;98395.59;;;25.42;26.40
21300;BME280;10809;49.476;11.016;2023-05-29T11:27:09;98393.41;;;25.45;26.07
21300;BME280;10809;49.476;11.016;2023-05-29T11:29:40;98394.06;;;25.47;26.00
21300;BME280;10809;49.476;11.016;2023-05-29T11:32:14;98395.97;;;25.47;25.91
21300;BME280;10809;49.476;11.016;2023-05-29T11:34:52;98384.25;;;25.46;26.33
21300;BME280;10809;49.476;11.016;2023-05-29T11:37:30;98376.81;;;25.48;26.14
21300;BME280;10809;49.476;11.016;2023-05-29T11:40:12;98383.38;;;25.54;26.26
21300;BME280;10809;49.476;11.016;2023-05-29T11:42:46;98384.06;;;25.56;25.65
21300;BME280;10809;49.476;11.016;2023-05-29T11:45:23;98388.25;;;25.58;25.67
21300;BME280;10809;49.476;11.016;2023-05-29T11:47:56;98386.41;;;25.59;25.66
21300;BME280;10809;49.476;11.016;2023-05-29T11:50:33;98385.19;;;25.61;25.79
21300;BME280;10809;49.476;11.016;2023-05-29T11:53:06;98392.97;;;25.64;25.54
21300;BME280;10809;49.476;11.016;2023-05-29T11:55:43;98389.72;;;25.69;25.88
21300;BME280;10809;49.476;11.016;2023-05-29T11:58:17;98385.63;;;25.73;25.71
21300;BME280;10809;49.476;11.016;2023-05-29T12:00:47;98390.56;;;25.77;25.31
21300;BME280;10809;49.476;11.016;2023-05-29T12:03:20;98390.00;;;25.82;25.48
21300;BME280;10809;49.476;11.016;2023-05-29T12:05:51;98387.59;;;25.87;25.12
21300;BME280;10809;49.476;11.016;2023-05-29T12:08:25;98389.94;;;25.90;24.97
21300;BME280;10809;49.476;11.016;2023-05-29T12:10:56;98386.22;;;25.91;24.67
21300;BME280;10809;49.476;11.016;2023-05-29T12:13:26;98379.75;;;25.92;24.95
21300;BME280;10809;49.476;11.016;2023-05-29T12:16:02;98383.97;;;25.94;24.54
21300;BME280;10809;49.476;11.016;2023-05-29T12:18:44;98377.34;;;25.97;25.23
21300;BME280;10809;49.476;11.016;2023-05-29T12:21:14;98383.06;;;26.02;24.42
21300;BME280;10809;49.476;11.016;2023-05-29T12:23:48;98377.31;;;26.05;24.61
21300;BME280;10809;49.476;11.016;2023-05-29T12:26:21;98375.94;;;26.09;24.43
21300;BME280;10809;49.476;11.016;2023-05-29T12:28:52;98382.00;;;26.11;24.44
21300;BME280;10809;49.476;11.016;2023-05-29T12:31:30;98377.94;;;26.15;24.71
21300;BME280;10809;49.476;11.016;2023-05-29T12:34:08;98381.97;;;26.19;24.78
21300;BME280;10809;49.476;11.016;2023-05-29T12:36:46;98379.56;;;26.24;24.73
21300;BME280;10809;49.476;11.016;2023-05-29T12:39:17;98383.22;;;26.31;24.68
21300;BME280;10809;49.476;11.016;2023-05-29T12:41:48;98374.34;;;26.37;24.54
21300;BME280;10809;49.476;11.016;2023-05-29T12:44:22;98380.38;;;26.47;24.94
21300;BME280;10809;49.476;11.016;2023-05-29T12:47:05;98370.44;;;26.54;24.42
21300;BME280;10809;49.476;11.016;2023-05-29T12:49:36;98373.09;;;26.62;24.19
21300;BME280;10809;49.476;11.016;2023-05-29T12:52:06;98365.25;;;26.67;24.32
21300;BME280;10809;49.476;11.016;2023-05-29T12:54:41;98362.66;;;26.74;24.33
21300;BME280;10809;49.476;11.016;2023-05-29T12:57:11;98367.53;;;26.78;24.31
21300;BME280;10809;49.476;11.016;2023-05-29T12:59:42;98366.78;;;26.84;23.99
21300;BME280;10809;49.476;11.016;2023-05-29T13:02:12;98362.69;;;26.88;23.99
21300;BME280;10809;49.476;11.016;2023-05-29T13:04:43;98362.31;;;26.91;24.11
21300;BME280;10809;49.476;11.016;2023-05-29T13:07:22;98361.75;;;26.96;24.06
21300;BME280;10809;49.476;11.016;2023-05-29T13:09:53;98364.91;;;26.99;24.09
21300;BME280;10809;49.476;11.016;2023-05-29T13:12:26;98360.63;;;27.05;24.25
21300;BME280;10809;49.476;11.016;2023-05-29T13:14:57;98353.38;;;27.12;24.12
21300;BME280;10809;49.476;11.016;2023-05-29T13:17:31;98357.72;;;27.21;23.98
21300;BME280;10809;49.476;11.016;2023-05-29T13:20:01;98348.63;;;27.28;23.45
21300;BME280;10809;49.476;11.016;2023-05-29T13:22:32;98348.72;;;27.35;23.71
21300;BME280;10809;49.476;11.016;2023-05-29T13:25:07;98343.56;;;27.40;23.71
21300;BME280;10809;49.476;11.016;2023-05-29T13:27:47;98339.22;;;27.45;24.13
21300;BME280;10809;49.476;11.016;2023-05-29T13:30:17;98344.75;;;27.52;23.82
21300;BME280;10809;49.476;11.016;2023-05-29T13:32:52;98343.59;;;27.61;23.82
21300;BME280;10809;49.476;11.016;2023-05-29T13:35:26;98336.34;;;27.68;23.12
21300;BME280;10809;49.476;11.016;2023-05-29T13:37:57;98338.28;;;27.74;22.92
21300;BME280;10809;49.476;11.016;2023-05-29T13:40:30;98333.34;;;27.77;23.33
21300;BME280;10809;49.476;11.016;2023-05-29T13:43:02;98333.81;;;27.81;22.72
21300;BME280;10809;49.476;11.016;2023-05-29T13:45:32;98335.69;;;27.80;23.00
21300;BME280;10809;49.476;11.016;2023-05-29T13:48:18;98333.97;;;27.79;22.93
21300;BME280;10809;49.476;11.016;2023-05-29T13:50:52;98326.66;;;27.80;22.67
21300;BME280;10809;49.476;11.016;2023-05-29T13:53:25;98322.91;;;27.81;22.68
21300;BME280;10809;49.476;11.016;2023-05-29T13:55:56;98325.44;;;27.82;22.72